Time;durP1;ratioP1;P1;durP2;ratioP2;P2;SDS_P1;SDS_P2;PMS_P1;PMS_P2;Temp;Humidity;BMP_temperature;BMP_pressure;BME280_temperature;BME280_humidity;BME280_pressure;Samples;Min_cycle;Max_cycle;Signal;HPM_P1;HPM_P2
2024/03/08 00:01:35;;;;;;;23.58;14.65;;;3.00;5.90;;;;;;5050748;28;20202;-68
2024/03/08 00:04:01;;;;;;;29.60;15.77;;;3.00;6.40;;;;;;5033009;28;20199;-68
2024/03/08 00:06:26;;;;;;;23.90;16.10;;;3.00;6.40;;;;;;5050848;28;20227;-68
2024/03/08 00:08:52;;;;;;;25.30;15.47;;;3.00;5.90;;;;;;5051225;28;20181;-68
2024/03/08 00:11:18;;;;;;;25.10;15.67;;;3.00;6.00;;;;;;5033113;28;20220;-69
2024/03/08 00:13:44;;;;;;;23.93;16.03;;;3.00;6.50;;;;;;5051320;28;20204;-68
2024/03/08 00:16:10;;;;;;;22.98;15.30;;;2.90;7.10;;;;;;5052385;28;20178;-69
2024/03/08 00:18:36;;;;;;;26.13;14.37;;;2.90;6.60;;;;;;5052427;28;20599;-68
2024/03/08 00:21:02;;;;;;;24.05;13.65;;;2.80;6.50;;;;;;5051396;28;20195;-68
2024/03/08 00:23:28;;;;;;;27.90;17.13;;;2.80;6.30;;;;;;5032499;28;20178;-67
2024/03/08 00:25:54;;;;;;;24.48;14.45;;;2.70;7.30;;;;;;5050610;28;20200;-69
2024/03/08 00:28:20;;;;;;;24.38;15.10;;;2.70;7.10;;;;;;5050915;28;20177;-69
2024/03/08 00:30:46;;;;;;;20.40;13.80;;;2.60;8.00;;;;;;5050243;28;20205;-67
2024/03/08 00:33:12;;;;;;;26.42;17.45;;;2.60;8.30;;;;;;5050260;28;20180;-67
2024/03/08 00:35:37;;;;;;;19.17;14.07;;;2.60;8.00;;;;;;5050575;28;20522;-67
2024/03/08 00:38:03;;;;;;;24.07;15.80;;;2.60;8.00;;;;;;5050486;28;20206;-69
2024/03/08 00:40:29;;;;;;;26.27;16.58;;;2.60;7.80;;;;;;5032604;28;20188;-68
2024/03/08 00:42:55;;;;;;;21.67;15.57;;;2.60;8.20;;;;;;5052833;28;20271;-67
2024/03/08 00:45:20;;;;;;;20.40;14.57;;;2.60;8.00;;;;;;5053910;28;20659;-67
2024/03/08 00:47:46;;;;;;;22.47;14.80;;;2.70;7.60;;;;;;5054232;28;20642;-69
2024/03/08 00:50:12;;;;;;;23.07;16.10;;;2.70;7.80;;;;;;5036291;28;20554;-68
2024/03/08 00:52:38;;;;;;;28.55;18.05;;;2.70;7.50;;;;;;5054293;28;20221;-69
2024/03/08 00:55:04;;;;;;;22.27;15.03;;;2.70;7.10;;;;;;5036089;28;20674;-68
2024/03/08 00:57:29;;;;;;;21.10;13.73;;;2.70;7.00;;;;;;5035778;28;20608;-68
2024/03/08 00:59:56;;;;;;;22.20;14.93;;;2.60;7.10;;;;;;5053957;28;20501;-68
2024/03/08 01:02:23;;;;;;;24.13;14.93;;;2.50;7.50;;;;;;5053662;28;20217;-67
2024/03/08 01:04:48;;;;;;;22.00;14.35;;;2.40;8.20;;;;;;5053456;28;20173;-68
2024/03/08 01:07:14;;;;;;;24.60;13.77;;;2.40;8.40;;;;;;5053846;28;20179;-67
2024/03/08 01:09:39;;;;;;;26.30;15.63;;;2.30;8.30;;;;;;5053817;28;20544;-68
2024/03/08 01:12:07;;;;;;;20.47;15.77;;;2.30;8.40;;;;;;5053745;28;20201;-69
2024/03/08 01:14:33;;;;;;;17.67;12.68;;;2.30;8.70;;;;;;5053652;28;20217;-68
2024/03/08 01:16:59;;;;;;;18.15;14.85;;;2.30;7.70;;;;;;5053777;28;20208;-68
2024/03/08 01:19:24;;;;;;;22.10;14.17;;;2.40;6.90;;;;;;5053895;28;20172;-68
2024/03/08 01:21:50;;;;;;;20.93;14.37;;;2.40;6.10;;;;;;5054028;28;20193;-67
2024/03/08 01:24:16;;;;;;;22.27;14.23;;;2.50;5.60;;;;;;5035479;28;20179;-68
2024/03/08 01:26:41;;;;;;;21.67;14.77;;;2.50;5.20;;;;;;5035320;28;20807;-68
2024/03/08 01:29:07;;;;;;;18.13;11.37;;;2.50;4.70;;;;;;5053191;28;20203;-68
2024/03/08 01:31:33;;;;;;;22.17;13.20;;;2.50;4.30;;;;;;5053229;28;20607;-68
2024/03/08 01:33:59;;;;;;;15.03;12.57;;;2.40;4.80;;;;;;5052781;28;20186;-67
2024/03/08 01:36:25;;;;;;;18.60;13.07;;;2.40;5.00;;;;;;5058546;28;20432;-68
2024/03/08 01:38:51;;;;;;;17.33;13.00;;;2.30;5.50;;;;;;5073308;28;20255;-68
2024/03/08 01:41:17;;;;;;;20.13;12.48;;;2.20;5.40;;;;;;5073223;28;20565;-69
2024/03/08 01:43:43;;;;;;;22.58;13.60;;;2.20;5.40;;;;;;5072989;28;20613;-68
2024/03/08 01:46:11;;;;;;;21.40;13.90;;;2.10;5.40;;;;;;5055071;28;20275;-69
2024/03/08 01:48:36;;;;;;;24.85;14.43;;;2.10;5.40;;;;;;5072751;28;20415;-67
2024/03/08 01:51:02;;;;;;;22.20;14.30;;;2.10;5.80;;;;;;5072996;28;20195;-69
2024/03/08 01:53:29;;;;;;;19.93;14.47;;;2.10;5.80;;;;;;5053897;28;20259;-67
2024/03/08 01:55:57;;;;;;;19.23;13.00;;;2.00;7.00;;;;;;5072325;28;20503;-67
2024/03/08 01:58:24;;;;;;;20.38;13.50;;;1.90;7.00;;;;;;5072724;28;20255;-69
2024/03/08 02:00:49;;;;;;;18.45;12.32;;;1.80;7.30;;;;;;5072585;28;20191;-67
2024/03/08 02:03:18;;;;;;;18.97;12.67;;;1.80;8.40;;;;;;5072388;28;20230;-68
2024/03/08 02:05:43;;;;;;;20.10;14.32;;;1.80;8.50;;;;;;5054191;28;20274;-67
2024/03/08 02:08:14;;;;;;;22.27;14.07;;;1.70;8.50;;;;;;5054675;28;20268;-67
2024/03/08 02:10:41;;;;;;;20.90;13.82;;;1.60;8.20;;;;;;5072414;28;20185;-68
2024/03/08 02:13:07;;;;;;;20.92;13.88;;;1.50;10.40;;;;;;5072422;28;20558;-68
2024/03/08 02:15:55;;;;;;;25.52;14.52;;;1.50;10.90;;;;;;5072000;28;20316;-67
2024/03/08 02:18:22;;;;;;;21.63;13.40;;;1.50;9.90;;;;;;5072024;28;20215;-67
2024/03/08 02:20:52;;;;;;;21.45;15.07;;;1.40;10.80;;;;;;5054037;28;20198;-67
2024/03/08 02:23:18;;;;;;;21.08;14.15;;;1.30;11.50;;;;;;5071924;28;20166;-67
2024/03/08 02:25:44;;;;;;;24.00;15.32;;;1.20;12.80;;;;;;5072063;28;20493;-67
2024/03/08 02:28:12;;;;;;;23.43;15.03;;;1.20;13.70;;;;;;5087540;28;20191;-67
2024/03/08 02:30:38;;;;;;;29.05;15.50;;;1.10;14.60;;;;;;5072324;28;20648;-67
2024/03/08 02:33:07;;;;;;;24.13;15.40;;;1.10;13.60;;;;;;5072111;28;20597;-67
2024/03/08 02:35:33;;;;;;;20.98;13.45;;;0.90;15.60;;;;;;5071691;28;20174;-67
2024/03/08 02:38:00;;;;;;;23.92;14.93;;;0.90;17.20;;;;;;5071743;28;20243;-68
2024/03/08 02:40:25;;;;;;;20.73;14.80;;;1.00;17.60;;;;;;5053686;28;20179;-68
2024/03/08 02:42:51;;;;;;;22.70;14.20;;;0.90;18.00;;;;;;5071604;28;20173;-68
2024/03/08 02:45:17;;;;;;;24.93;15.53;;;0.90;17.50;;;;;;5071673;28;20277;-67
2024/03/08 02:47:42;;;;;;;21.10;14.43;;;0.90;18.10;;;;;;5087563;28;20189;-68
2024/03/08 02:50:08;;;;;;;25.13;16.30;;;0.80;18.80;;;;;;5072041;28;20170;-68
2024/03/08 02:52:35;;;;;;;22.57;15.70;;;0.80;20.00;;;;;;5071726;28;20281;-68
2024/03/08 02:55:01;;;;;;;24.55;16.10;;;0.70;20.50;;;;;;5071364;28;20181;-68
2024/03/08 02:57:27;;;;;;;26.40;15.48;;;0.70;21.60;;;;;;5053619;28;20201;-67
2024/03/08 02:59:53;;;;;;;30.23;17.77;;;0.70;21.00;;;;;;5071653;28;20718;-68
2024/03/08 03:02:19;;;;;;;23.85;15.73;;;0.60;21.80;;;;;;5071580;28;20425;-67
2024/03/08 03:04:44;;;;;;;27.70;15.33;;;0.60;23.10;;;;;;5071331;28;20275;-67
2024/03/08 03:07:11;;;;;;;28.23;17.00;;;0.60;23.60;;;;;;5086756;28;20182;-68
2024/03/08 03:09:36;;;;;;;26.75;15.60;;;0.60;22.50;;;;;;5071185;28;20601;-67
2024/03/08 03:12:02;;;;;;;24.33;16.13;;;0.60;22.70;;;;;;5070964;28;20288;-67
2024/03/08 03:14:28;;;;;;;23.87;16.50;;;0.60;23.50;;;;;;5071019;28;20296;-67
2024/03/08 03:16:54;;;;;;;24.33;16.10;;;0.60;22.90;;;;;;5070885;28;20201;-68
2024/03/08 03:19:20;;;;;;;29.07;16.27;;;0.60;23.60;;;;;;5071048;28;20239;-67
2024/03/08 03:21:46;;;;;;;30.33;18.63;;;0.50;23.90;;;;;;5070862;28;20428;-68
2024/03/08 03:24:12;;;;;;;23.90;14.93;;;0.50;24.40;;;;;;5070861;28;20667;-67
2024/03/08 03:26:40;;;;;;;22.70;15.37;;;0.50;25.50;;;;;;5086299;28;20177;-67
2024/03/08 03:29:08;;;;;;;27.38;16.80;;;0.50;25.50;;;;;;5053165;28;20424;-67
2024/03/08 03:31:34;;;;;;;25.75;17.50;;;0.50;25.50;;;;;;5071051;28;20216;-67
2024/03/08 03:34:03;;;;;;;28.50;19.30;;;0.50;24.50;;;;;;5071163;28;20170;-68
2024/03/08 03:36:30;;;;;;;23.45;18.20;;;0.50;24.10;;;;;;5070791;28;20439;-67
2024/03/08 03:39:09;;;;;;;34.78;17.40;;;0.50;25.50;;;;;;5070785;28;20193;-68
2024/03/08 03:41:35;;;;;;;26.73;16.75;;;0.50;25.50;;;;;;5070903;28;20192;-67
2024/03/08 03:44:01;;;;;;;23.20;17.23;;;0.50;23.20;;;;;;5070923;28;20166;-67
2024/03/08 03:46:27;;;;;;;21.30;15.43;;;0.50;25.50;;;;;;5052472;28;20184;-68
2024/03/08 03:48:53;;;;;;;27.23;18.05;;;0.40;24.00;;;;;;5070989;28;20210;-68
2024/03/08 03:51:20;;;;;;;31.52;16.40;;;0.30;25.40;;;;;;5071023;28;20189;-68
2024/03/08 03:53:45;;;;;;;26.88;18.10;;;0.30;25.40;;;;;;5086300;28;20544;-68
2024/03/08 03:56:11;;;;;;;23.17;16.10;;;0.30;26.80;;;;;;5070747;28;20280;-67
2024/03/08 03:58:36;;;;;;;26.40;18.00;;;0.40;28.20;;;;;;5070980;28;20213;-68
2024/03/08 04:01:04;;;;;;;25.43;17.77;;;0.40;29.70;;;;;;5070730;28;20202;-67
2024/03/08 04:03:30;;;;;;;28.27;16.95;;;0.40;26.90;;;;;;5073094;28;20181;-68
2024/03/08 04:05:56;;;;;;;28.07;17.03;;;0.40;27.40;;;;;;5073132;28;20177;-68
2024/03/08 04:08:21;;;;;;;33.03;20.30;;;0.30;27.50;;;;;;5072638;28;20260;-68
2024/03/08 04:10:47;;;;;;;31.23;18.07;;;0.40;27.90;;;;;;5071056;28;20222;-68
2024/03/08 04:13:13;;;;;;;22.70;15.38;;;0.40;27.30;;;;;;5070843;28;20166;-68
2024/03/08 04:15:39;;;;;;;27.77;18.23;;;0.40;26.90;;;;;;5070891;28;20637;-68
2024/03/08 04:18:04;;;;;;;32.27;16.90;;;0.50;27.70;;;;;;5073123;28;20202;-68
2024/03/08 04:20:30;;;;;;;25.33;16.43;;;0.50;26.90;;;;;;5074291;28;20178;-67
2024/03/08 04:22:56;;;;;;;28.23;19.47;;;0.60;27.20;;;;;;5074559;28;20182;-67
2024/03/08 04:25:21;;;;;;;35.23;18.50;;;0.60;26.30;;;;;;5089694;28;20177;-67
2024/03/08 04:27:49;;;;;;;21.60;14.67;;;0.70;26.60;;;;;;5090717;28;20200;-67
2024/03/08 04:30:14;;;;;;;29.25;18.83;;;0.70;25.60;;;;;;5074440;28;20208;-67
2024/03/08 04:32:41;;;;;;;28.63;17.40;;;0.80;25.70;;;;;;5074216;28;20241;-67
2024/03/08 04:35:07;;;;;;;26.15;17.52;;;0.80;25.70;;;;;;5074021;28;20185;-67
2024/03/08 04:37:34;;;;;;;29.60;18.08;;;0.90;25.50;;;;;;5074094;28;20202;-67
2024/03/08 04:39:59;;;;;;;28.27;17.50;;;1.00;24.70;;;;;;5074336;28;20170;-67
2024/03/08 04:42:29;;;;;;;26.57;17.30;;;1.00;24.20;;;;;;5074442;28;20683;-68
2024/03/08 04:44:55;;;;;;;32.63;20.02;;;1.10;23.40;;;;;;5073853;28;20174;-67
2024/03/08 04:47:21;;;;;;;28.40;18.00;;;1.20;22.70;;;;;;5055986;28;20186;-68
2024/03/08 04:49:46;;;;;;;25.20;16.83;;;1.30;22.00;;;;;;5074445;28;20495;-67
2024/03/08 04:52:12;;;;;;;27.40;15.90;;;1.30;21.90;;;;;;5074211;28;20290;-67
2024/03/08 04:54:37;;;;;;;24.13;16.33;;;1.40;20.80;;;;;;5073831;28;20182;-68
2024/03/08 04:57:04;;;;;;;24.13;15.30;;;1.50;20.40;;;;;;5073961;28;20267;-68
2024/03/08 04:59:30;;;;;;;25.65;17.30;;;1.50;19.50;;;;;;5073951;28;20176;-68
2024/03/08 05:01:56;;;;;;;28.08;17.23;;;1.60;19.00;;;;;;5073959;28;20285;-68
2024/03/08 05:04:22;;;;;;;28.13;15.93;;;1.60;19.00;;;;;;5073825;28;20657;-68
2024/03/08 05:06:48;;;;;;;25.10;14.30;;;1.60;18.50;;;;;;5073927;28;20182;-67
2024/03/08 05:09:14;;;;;;;32.60;15.07;;;1.70;18.00;;;;;;5073707;28;20174;-67
2024/03/08 05:11:41;;;;;;;23.67;15.50;;;1.70;17.60;;;;;;5073340;28;20206;-67
2024/03/08 05:14:07;;;;;;;26.23;15.90;;;1.70;17.20;;;;;;5073305;28;20202;-68
2024/03/08 05:16:32;;;;;;;23.13;16.57;;;1.70;17.50;;;;;;5073794;28;20664;-68
2024/03/08 05:18:58;;;;;;;24.47;14.90;;;1.80;16.60;;;;;;5073621;28;20265;-67
2024/03/08 05:21:23;;;;;;;31.47;17.57;;;1.80;16.50;;;;;;5073504;28;20293;-67
2024/03/08 05:23:50;;;;;;;28.90;18.10;;;1.80;16.40;;;;;;5089115;28;20608;-68
2024/03/08 05:26:16;;;;;;;24.25;16.05;;;1.80;16.10;;;;;;5073441;28;20182;-67
2024/03/08 05:28:42;;;;;;;28.93;16.57;;;1.80;16.60;;;;;;5054263;28;20489;-67
2024/03/08 05:31:08;;;;;;;24.23;16.40;;;1.90;16.40;;;;;;5073131;28;20455;-67
2024/03/08 05:33:34;;;;;;;24.48;16.42;;;1.90;16.50;;;;;;5073666;28;20176;-68
2024/03/08 05:36:03;;;;;;;20.65;14.18;;;2.00;16.30;;;;;;5073484;28;20170;-68
2024/03/08 05:38:28;;;;;;;22.45;14.18;;;2.00;15.50;;;;;;5073384;28;20292;-68
2024/03/08 05:40:54;;;;;;;24.90;15.93;;;2.00;16.30;;;;;;5073870;28;20537;-68
2024/03/08 05:43:20;;;;;;;25.60;16.10;;;2.10;16.00;;;;;;5056124;28;20654;-68
2024/03/08 05:45:46;;;;;;;23.27;14.27;;;2.10;15.50;;;;;;5073793;28;20453;-68
2024/03/08 05:48:13;;;;;;;22.70;13.82;;;2.10;15.30;;;;;;5056032;28;20200;-68
2024/03/08 05:50:38;;;;;;;22.50;15.85;;;2.20;14.70;;;;;;5075086;28;20187;-68
2024/03/08 05:53:07;;;;;;;27.53;16.47;;;2.20;14.10;;;;;;5074310;28;20706;-67
2024/03/08 05:55:36;;;;;;;23.40;16.00;;;2.30;13.40;;;;;;5073828;28;20237;-68
2024/03/08 05:58:02;;;;;;;23.83;15.15;;;2.40;13.50;;;;;;5073691;28;20224;-68
2024/03/08 06:00:27;;;;;;;27.70;16.63;;;2.40;13.10;;;;;;5073323;28;20180;-68
2024/03/08 06:02:53;;;;;;;26.27;14.43;;;2.40;11.90;;;;;;5088902;28;20960;-68
2024/03/08 06:05:19;;;;;;;25.03;14.70;;;2.40;11.50;;;;;;5074903;28;20180;-68
2024/03/08 06:07:45;;;;;;;26.53;16.53;;;2.50;11.50;;;;;;5098688;28;20185;-67
2024/03/08 06:10:14;;;;;;;21.37;15.13;;;2.60;10.80;;;;;;5065653;28;20176;-67
2024/03/08 06:12:41;;;;;;;28.98;17.65;;;2.60;10.10;;;;;;5076782;28;20525;-67
2024/03/08 06:15:08;;;;;;;23.55;16.88;;;2.50;10.00;;;;;;5073969;28;20199;-67
2024/03/08 06:17:34;;;;;;;22.58;15.50;;;2.50;10.30;;;;;;5055800;28;20249;-68
2024/03/08 06:20:00;;;;;;;30.13;17.13;;;2.50;10.00;;;;;;5073242;28;20204;-71
2024/03/08 06:22:25;;;;;;;24.37;13.67;;;2.50;10.00;;;;;;5073263;28;20542;-69
2024/03/08 06:24:51;;;;;;;24.33;15.00;;;2.40;9.90;;;;;;5073019;28;20175;-69
2024/03/08 06:27:17;;;;;;;24.60;15.87;;;2.40;10.70;;;;;;5072670;28;20525;-69
2024/03/08 06:29:43;;;;;;;25.70;16.50;;;2.40;10.60;;;;;;5072916;28;20179;-68
2024/03/08 06:32:08;;;;;;;25.50;16.23;;;2.50;10.90;;;;;;5072118;28;20461;-69
2024/03/08 06:34:36;;;;;;;22.10;14.70;;;2.60;10.80;;;;;;5071962;28;20549;-68
2024/03/08 06:37:02;;;;;;;21.40;15.18;;;2.60;10.10;;;;;;5072226;28;20297;-68
2024/03/08 06:39:31;;;;;;;22.77;14.80;;;2.60;9.90;;;;;;5072029;28;20178;-68
2024/03/08 06:41:57;;;;;;;24.35;14.75;;;2.70;9.60;;;;;;5072316;28;20186;-67
2024/03/08 06:44:22;;;;;;;27.30;14.93;;;2.80;9.30;;;;;;5071788;28;20512;-67
2024/03/08 06:46:48;;;;;;;23.27;14.47;;;2.90;9.20;;;;;;5072090;28;20185;-68
2024/03/08 06:49:15;;;;;;;22.00;14.77;;;3.00;9.10;;;;;;5071985;28;20190;-68
2024/03/08 06:51:41;;;;;;;25.45;13.52;;;3.10;8.40;;;;;;5072059;28;20569;-68
2024/03/08 06:54:08;;;;;;;22.27;15.03;;;3.10;7.10;;;;;;5071720;28;20177;-68
2024/03/08 06:56:37;;;;;;;22.48;12.25;;;3.10;7.90;;;;;;5071791;28;20928;-68
2024/03/08 06:59:03;;;;;;;19.27;13.15;;;3.10;7.10;;;;;;5071691;28;20167;-69
2024/03/08 07:01:34;;;;;;;19.30;14.00;;;3.30;6.60;;;;;;5071221;28;20290;-68
2024/03/08 07:04:02;;;;;;;19.75;12.10;;;3.40;7.30;;;;;;5071471;28;20562;-69
2024/03/08 07:06:28;;;;;;;19.88;13.27;;;3.40;4.70;;;;;;5053364;28;20179;-68
2024/03/08 07:08:54;;;;;;;21.08;14.93;;;3.40;6.20;;;;;;5071548;28;20175;-68
2024/03/08 07:11:19;;;;;;;20.37;14.00;;;3.50;5.80;;;;;;5071702;28;20198;-69
2024/03/08 07:13:45;;;;;;;21.80;14.27;;;3.50;4.30;;;;;;5087299;28;20548;-68
2024/03/08 07:16:11;;;;;;;18.70;12.90;;;3.60;3.30;;;;;;5070127;28;20186;-68
2024/03/08 07:18:43;;;;;;;24.55;15.00;;;3.50;3.90;;;;;;5051290;28;21006;-68
2024/03/08 07:21:11;;;;;;;23.03;14.43;;;3.60;4.00;;;;;;5033033;28;20537;-68
2024/03/08 07:23:46;;;;;;;25.08;14.18;;;3.70;3.60;;;;;;5050892;28;20927;-68
2024/03/08 07:26:16;;;;;;;21.05;14.30;;;3.60;2.90;;;;;;5032736;28;20555;-67
2024/03/08 07:28:41;;;;;;;22.98;15.85;;;3.70;1.90;;;;;;5051050;28;20167;-68
2024/03/08 07:33:53;;;;;;;20.37;14.20;;;3.70;2.90;;;;;;5112076;28;20589;-70
2024/03/08 07:36:18;;;;;;;19.48;12.77;;;3.80;2.30;;;;;;5097035;28;20409;-69
2024/03/08 07:38:46;;;;;;;17.30;11.17;;;3.80;2.00;;;;;;5087786;28;20275;-68
2024/03/08 07:41:12;;;;;;;21.23;13.90;;;4.00;2.90;;;;;;5082781;28;20457;-69
2024/03/08 07:43:38;;;;;;;24.67;14.77;;;4.00;2.60;;;;;;5068370;28;20921;-68
2024/03/08 07:46:04;;;;;;;23.63;12.97;;;4.10;1.00;;;;;;5067017;28;20438;-67
2024/03/08 07:48:30;;;;;;;27.57;14.43;;;3.90;1.50;;;;;;5067291;28;20215;-67
2024/03/08 07:50:56;;;;;;;21.08;14.15;;;3.90;1.00;;;;;;5067772;28;20205;-67
2024/03/08 07:53:24;;;;;;;17.73;12.70;;;4.10;1.00;;;;;;5065509;28;20210;-67
2024/03/08 07:55:49;;;;;;;20.50;14.35;;;4.10;1.00;;;;;;5067045;28;20480;-67
2024/03/08 07:58:15;;;;;;;23.13;13.90;;;4.10;1.00;;;;;;5067721;28;20212;-67
2024/03/08 08:00:42;;;;;;;23.37;14.93;;;4.00;1.00;;;;;;5067245;28;20176;-67
2024/03/08 08:03:08;;;;;;;15.87;12.83;;;4.10;1.00;;;;;;5066989;28;20283;-67
2024/03/08 08:05:35;;;;;;;21.50;14.27;;;4.20;1.00;;;;;;5067387;28;20450;-70
2024/03/08 08:08:05;;;;;;;20.52;14.63;;;4.20;1.00;;;;;;5067381;28;20478;-68
2024/03/08 08:10:32;;;;;;;19.15;11.63;;;4.40;1.00;;;;;;5080234;28;20183;-68
2024/03/08 08:12:58;;;;;;;19.70;13.40;;;4.70;1.00;;;;;;5079007;28;20228;-68
2024/03/08 08:15:24;;;;;;;19.83;13.30;;;4.90;1.00;;;;;;5075131;28;20444;-70
2024/03/08 08:17:49;;;;;;;16.90;12.03;;;4.80;1.00;;;;;;5085125;28;20599;-68
2024/03/08 08:20:18;;;;;;;17.63;13.03;;;4.70;1.00;;;;;;5087596;28;20191;-70
2024/03/08 08:22:44;;;;;;;21.00;12.90;;;4.80;1.00;;;;;;5085797;28;20676;-70
2024/03/08 08:25:13;;;;;;;16.37;12.30;;;5.00;1.00;;;;;;5085671;28;20423;-69
2024/03/08 08:27:39;;;;;;;16.60;12.27;;;5.10;1.00;;;;;;5084502;28;20478;-70
2024/03/08 08:30:07;;;;;;;16.80;12.63;;;5.10;1.00;;;;;;5067078;28;20925;-69
2024/03/08 08:32:34;;;;;;;19.70;12.73;;;5.00;1.00;;;;;;5085246;28;20450;-69
2024/03/08 08:35:00;;;;;;;16.00;11.90;;;5.00;1.00;;;;;;5081139;28;20428;-68
2024/03/08 08:37:25;;;;;;;17.23;12.00;;;5.20;1.00;;;;;;5084752;28;20589;-68
2024/03/08 08:39:52;;;;;;;20.67;11.93;;;5.20;1.00;;;;;;5086811;28;20200;-71
2024/03/08 08:42:18;;;;;;;18.83;13.37;;;5.20;1.00;;;;;;5086585;28;20197;-67
2024/03/08 08:44:43;;;;;;;18.17;11.33;;;5.30;1.00;;;;;;5084264;28;20424;-69
2024/03/08 08:47:09;;;;;;;19.40;12.80;;;5.50;1.00;;;;;;5066891;28;20190;-67
2024/03/08 08:49:35;;;;;;;16.77;11.80;;;5.40;1.00;;;;;;5065487;28;20186;-67
2024/03/08 08:52:00;;;;;;;16.13;11.53;;;5.20;1.00;;;;;;5067197;28;20205;-69
2024/03/08 08:54:28;;;;;;;16.03;12.77;;;5.30;1.00;;;;;;5074686;28;20765;-68
2024/03/08 08:56:54;;;;;;;21.40;13.13;;;5.30;1.00;;;;;;5086453;28;20976;-68
2024/03/08 08:59:19;;;;;;;18.30;12.97;;;5.40;1.00;;;;;;5087142;28;20445;-69
2024/03/08 09:01:47;;;;;;;18.13;13.70;;;5.40;1.00;;;;;;5083158;28;20233;-67
2024/03/08 09:04:12;;;;;;;18.03;11.20;;;5.60;1.00;;;;;;5068393;28;20228;-68
2024/03/08 09:06:41;;;;;;;17.80;11.60;;;5.70;1.00;;;;;;5069178;28;20456;-68
2024/03/08 09:09:09;;;;;;;15.43;10.67;;;5.80;1.00;;;;;;5069806;28;20182;-69
2024/03/08 09:11:34;;;;;;;15.67;12.60;;;5.70;1.00;;;;;;5068103;28;20474;-68
2024/03/08 09:14:01;;;;;;;17.27;11.20;;;5.80;1.00;;;;;;5070565;28;20899;-68
2024/03/08 09:16:27;;;;;;;16.30;11.70;;;6.00;1.00;;;;;;5067867;28;20182;-68
2024/03/08 09:18:53;;;;;;;20.10;14.00;;;6.20;1.00;;;;;;5076596;28;20428;-69
2024/03/08 09:21:18;;;;;;;18.90;11.67;;;6.10;1.00;;;;;;5077400;28;20228;-69
2024/03/08 09:23:44;;;;;;;19.87;12.87;;;6.00;1.00;;;;;;5069775;28;20213;-68
2024/03/08 09:26:12;;;;;;;15.10;11.00;;;5.90;1.00;;;;;;5069563;28;20174;-68
2024/03/08 09:28:38;;;;;;;13.90;10.43;;;6.00;1.00;;;;;;5070190;28;20565;-68
2024/03/08 09:31:05;;;;;;;17.50;12.13;;;5.90;1.00;;;;;;5068107;28;20526;-71
2024/03/08 09:33:31;;;;;;;17.87;12.87;;;6.30;1.00;;;;;;5077889;28;20448;-69
2024/03/08 09:35:59;;;;;;;19.07;13.87;;;6.30;1.00;;;;;;5072643;28;20412;-69
2024/03/08 09:38:25;;;;;;;15.03;12.93;;;6.00;1.00;;;;;;5073703;28;20451;-69
2024/03/08 09:40:52;;;;;;;16.47;11.40;;;6.10;1.00;;;;;;5079604;28;20500;-69
2024/03/08 09:43:18;;;;;;;16.40;12.40;;;6.20;1.00;;;;;;5079814;28;20261;-69
2024/03/08 09:45:49;;;;;;;18.53;12.30;;;6.10;1.00;;;;;;5073273;28;20495;-68
2024/03/08 09:48:16;;;;;;;18.07;12.93;;;6.20;1.00;;;;;;5073755;28;20748;-69
2024/03/08 09:50:42;;;;;;;20.50;12.83;;;6.50;1.00;;;;;;5073585;28;20444;-68
2024/03/08 09:53:09;;;;;;;16.47;11.37;;;6.40;1.00;;;;;;5073458;28;20914;-68
2024/03/08 09:55:37;;;;;;;15.40;10.53;;;6.70;1.00;;;;;;5088445;28;20502;-69
2024/03/08 10:00:50;;;;;;;14.60;10.67;;;7.10;1.00;;;;;;5094948;28;20419;-69
2024/03/08 10:03:16;;;;;;;15.80;10.60;;;6.90;1.00;;;;;;5094318;28;20785;-69
2024/03/08 10:05:41;;;;;;;16.80;12.40;;;7.10;1.00;;;;;;5088496;28;20409;-69
2024/03/08 10:08:08;;;;;;;16.77;12.07;;;7.30;1.00;;;;;;5073616;28;20186;-69
2024/03/08 10:10:34;;;;;;;18.60;13.13;;;7.00;1.00;;;;;;5073187;28;20467;-69
2024/03/08 10:13:00;;;;;;;18.77;10.43;;;7.20;1.00;;;;;;5072972;28;20440;-69
2024/03/08 10:15:29;;;;;;;11.90;9.47;;;7.50;1.00;;;;;;5072120;28;20419;-69
2024/03/08 10:17:56;;;;;;;16.10;10.17;;;7.90;1.00;;;;;;5073112;28;20487;-68
2024/03/08 10:20:23;;;;;;;16.63;10.63;;;8.00;1.00;;;;;;5077372;28;20441;-69
2024/03/08 10:22:49;;;;;;;14.80;11.67;;;8.00;1.00;;;;;;5071356;28;20460;-69
2024/03/08 10:25:15;;;;;;;13.30;9.20;;;8.10;1.00;;;;;;5072660;28;20418;-69
2024/03/08 10:27:41;;;;;;;15.37;10.10;;;7.80;1.00;;;;;;5072551;28;20218;-68
2024/03/08 10:30:12;;;;;;;13.33;10.57;;;7.70;1.00;;;;;;5080620;28;20455;-68
2024/03/08 10:32:39;;;;;;;13.10;10.57;;;7.60;1.00;;;;;;5092703;28;20456;-69
2024/03/08 10:35:06;;;;;;;17.90;12.50;;;7.90;1.00;;;;;;5092623;28;20787;-69
2024/03/08 10:37:35;;;;;;;18.20;11.20;;;7.60;1.00;;;;;;5092716;28;20488;-68
2024/03/08 10:40:10;;;;;;;18.00;11.57;;;7.40;1.00;;;;;;5092753;28;20415;-69
2024/03/08 10:42:43;;;;;;;16.97;11.90;;;7.60;1.00;;;;;;5091607;28;20967;-70
2024/03/08 10:45:37;;;;;;;17.67;12.37;;;7.40;1.00;;;;;;5074482;28;20428;-76
2024/03/08 10:48:27;;;;;;;17.53;13.30;;;7.40;1.00;;;;;;5077763;28;20497;-67
2024/03/08 10:50:53;;;;;;;20.10;11.23;;;7.10;1.00;;;;;;5087748;28;20427;-69
2024/03/08 10:53:21;;;;;;;17.80;11.80;;;6.70;1.00;;;;;;5086510;28;20804;-69
2024/03/08 10:55:47;;;;;;;20.23;10.40;;;6.40;1.00;;;;;;5090445;28;20415;-70
2024/03/08 10:58:13;;;;;;;16.30;10.37;;;6.30;1.00;;;;;;5092154;28;20509;-69
2024/03/08 11:00:41;;;;;;;18.33;10.90;;;6.10;1.00;;;;;;5091750;28;20423;-69
2024/03/08 11:03:07;;;;;;;15.50;11.03;;;6.10;1.00;;;;;;5092050;28;20436;-69
2024/03/08 11:05:36;;;;;;;16.07;11.50;;;6.20;1.00;;;;;;5091742;28;20745;-70
2024/03/08 11:08:04;;;;;;;19.50;12.00;;;6.10;1.00;;;;;;5092338;28;20432;-69
2024/03/08 11:10:29;;;;;;;17.00;12.37;;;6.10;1.00;;;;;;5092012;28;20453;-68
2024/03/08 11:12:55;;;;;;;14.20;10.87;;;6.50;1.00;;;;;;5092351;28;20445;-70
2024/03/08 11:15:20;;;;;;;17.47;11.43;;;6.60;1.00;;;;;;5092097;28;20217;-70
2024/03/08 11:17:50;;;;;;;17.00;12.30;;;6.80;1.00;;;;;;5088179;28;20204;-69
2024/03/08 11:20:34;;;;;;;19.23;12.63;;;6.80;1.00;;;;;;5071925;28;20673;-70
2024/03/08 11:23:04;;;;;;;14.20;10.50;;;7.00;1.00;;;;;;5071668;28;20481;-68
2024/03/08 11:25:45;;;;;;;19.67;10.77;;;7.10;1.00;;;;;;5075894;28;20412;-69
2024/03/08 11:28:20;;;;;;;16.73;11.27;;;7.10;1.00;;;;;;5082074;28;20437;-69
2024/03/08 11:30:58;;;;;;;13.53;10.60;;;7.20;1.00;;;;;;5071845;28;20419;-69
2024/03/08 11:33:28;;;;;;;16.03;11.33;;;7.10;1.00;;;;;;5071963;28;20449;-69
2024/03/08 11:36:11;;;;;;;14.43;11.87;;;6.90;1.00;;;;;;5071542;28;20425;-69
2024/03/08 11:38:49;;;;;;;18.20;12.10;;;7.00;1.00;;;;;;5071747;28;20462;-69
2024/03/08 11:41:22;;;;;;;27.33;12.43;;;7.00;1.00;;;;;;5090388;28;20460;-68
2024/03/08 11:43:50;;;;;;;20.50;11.00;;;7.00;1.00;;;;;;5092259;28;20820;-69
2024/03/08 11:46:17;;;;;;;15.83;11.70;;;6.70;1.00;;;;;;5093305;28;20410;-68
2024/03/08 11:48:44;;;;;;;16.80;12.00;;;6.90;1.00;;;;;;5091779;28;20467;-68
2024/03/08 11:51:11;;;;;;;19.37;12.60;;;7.30;1.00;;;;;;5091815;28;20433;-68
2024/03/08 11:53:38;;;;;;;16.17;11.77;;;7.50;1.00;;;;;;5091760;28;20409;-67
2024/03/08 11:56:13;;;;;;;19.23;13.03;;;7.90;1.00;;;;;;5084504;28;20431;-69
2024/03/08 11:58:40;;;;;;;14.90;10.50;;;8.00;1.00;;;;;;5071274;28;20552;-68
2024/03/08 12:01:13;;;;;;;18.90;12.10;;;8.00;1.00;;;;;;5071348;28;20410;-68
2024/03/08 12:03:42;;;;;;;19.53;12.57;;;8.00;1.00;;;;;;5071719;28;20444;-68
2024/03/08 12:06:09;;;;;;;17.37;12.33;;;8.10;1.00;;;;;;5073276;28;20427;-68
2024/03/08 12:08:35;;;;;;;18.23;11.73;;;8.10;1.00;;;;;;5089730;28;20424;-68
2024/03/08 12:11:01;;;;;;;15.60;10.97;;;8.10;1.00;;;;;;5091324;28;20733;-68
2024/03/08 12:13:31;;;;;;;15.17;11.50;;;8.30;1.00;;;;;;5091095;28;20419;-68
2024/03/08 12:16:00;;;;;;;16.37;11.40;;;8.30;1.00;;;;;;5091027;28;20176;-68
2024/03/08 12:18:27;;;;;;;20.70;12.00;;;8.50;1.00;;;;;;5091491;28;20988;-68
2024/03/08 12:21:10;;;;;;;16.70;10.97;;;8.60;1.00;;;;;;5088560;28;20469;-68
2024/03/08 12:23:38;;;;;;;17.87;12.90;;;8.80;1.00;;;;;;5071067;28;20506;-68
2024/03/08 12:26:17;;;;;;;15.77;10.87;;;9.10;1.00;;;;;;5070776;28;20443;-68
2024/03/08 12:28:45;;;;;;;13.83;10.90;;;9.20;1.00;;;;;;5071121;28;20417;-68
2024/03/08 12:31:16;;;;;;;17.73;11.43;;;9.20;1.00;;;;;;5070808;28;20447;-68
2024/03/08 12:33:49;;;;;;;15.87;11.03;;;9.30;1.00;;;;;;5071025;28;20465;-68
2024/03/08 12:36:16;;;;;;;18.53;11.33;;;9.20;1.00;;;;;;5072328;28;20453;-68
2024/03/08 12:38:48;;;;;;;19.23;13.73;;;9.30;1.00;;;;;;5072795;28;20484;-68
2024/03/08 12:41:18;;;;;;;10.67;9.47;;;9.30;1.00;;;;;;5074997;28;20525;-68
2024/03/08 12:43:48;;;;;;;16.57;13.70;;;9.40;1.00;;;;;;5074874;28;20925;-68
2024/03/08 12:46:14;;;;;;;14.77;10.83;;;9.60;1.00;;;;;;5073196;28;20919;-68
2024/03/08 12:48:40;;;;;;;17.40;13.17;;;9.60;1.00;;;;;;5076874;28;20458;-68